createdAt,value
2018-10-09T00:00:16.809Z,6.64
2018-10-09T00:01:17.084Z,6.51
2018-10-09T00:02:17.108Z,6.52
2018-10-09T00:03:17.122Z,6.38
2018-10-09T00:04:17.133Z,6.44
2018-10-09T00:05:17.153Z,6.43
2018-10-09T00:06:31.576Z,6.43
2018-10-09T00:07:17.186Z,6.41
2018-10-09T00:08:17.203Z,6.44
2018-10-09T00:09:17.223Z,6.36
2018-10-09T00:10:16.982Z,6.36
2018-10-09T00:11:17.257Z,6.31
2018-10-09T00:13:31.953Z,6.34
2018-10-09T00:14:17.308Z,6.31
2018-10-09T00:15:17.322Z,6.33
2018-10-09T00:16:17.089Z,6.31
2018-10-09T00:17:17.357Z,6.38
2018-10-09T00:18:17.370Z,6.34
2018-10-09T00:19:17.132Z,6.38
2018-10-09T00:20:17.407Z,6.37
2018-10-09T00:21:17.432Z,6.33
2018-10-09T00:22:32.103Z,6.4
2018-10-09T00:23:17.459Z,6.3
2018-10-09T00:24:17.218Z,6.43
2018-10-09T00:25:17.238Z,6.4
2018-10-09T00:26:17.829Z,6.46
2018-10-09T00:28:17.283Z,6.41
2018-10-09T00:29:17.560Z,6.48
2018-10-09T00:30:17.320Z,6.44
2018-10-09T00:31:17.595Z,6.38
2018-10-09T00:32:17.352Z,6.3
2018-10-09T00:33:17.628Z,6.37
2018-10-09T00:34:17.647Z,6.33
2018-10-09T00:35:17.660Z,6.25
2018-10-09T00:36:17.679Z,6.18
2018-10-09T00:37:32.361Z,6.25
2018-10-09T00:38:17.713Z,6.19
2018-10-09T00:39:17.726Z,6.22
2018-10-09T00:40:17.747Z,6.28
2018-10-09T00:41:17.762Z,6.33
2018-10-09T00:43:17.797Z,6.25
2018-10-09T00:45:17.831Z,6.33
2018-10-09T00:47:17.604Z,6.22
2018-10-09T00:48:17.881Z,6.19
2018-10-09T00:49:17.674Z,6.17
2018-10-09T00:50:17.921Z,6.22
2018-10-09T00:51:32.604Z,6.15
2018-10-09T00:52:17.695Z,6.11
2018-10-09T00:53:17.706Z,6.09
2018-10-09T00:54:17.984Z,6.08
2018-10-09T00:55:18.099Z,6.15
2018-10-09T00:56:17.756Z,6.14
2018-10-09T00:57:18.037Z,6.12
2018-10-09T00:58:18.053Z,6.18
2018-10-09T00:59:18.067Z,6.09
2018-10-09T01:00:18.082Z,6.18
2018-10-09T01:01:18.098Z,6.17
2018-10-09T01:02:18.114Z,6.19
2018-10-09T01:03:17.874Z,6.22
2018-10-09T01:04:32.563Z,6.18
2018-10-09T01:05:32.570Z,6.21
2018-10-09T01:06:18.185Z,6.14
2018-10-09T01:07:18.198Z,6.12
2018-10-09T01:08:18.218Z,6.22
2018-10-09T01:09:32.896Z,6.17
2018-10-09T01:10:18.251Z,6.22
2018-10-09T01:11:18.266Z,6.17
2018-10-09T01:12:18.029Z,6.15
2018-10-09T01:13:18.047Z,6.11
2018-10-09T01:14:18.060Z,6.09
2018-10-09T01:15:33.000Z,5.99
2018-10-09T01:17:18.366Z,6.03
2018-10-09T01:18:18.383Z,5.91
2018-10-09T01:19:18.145Z,5.94
2018-10-09T01:20:32.822Z,5.9
2018-10-09T01:21:18.436Z,5.9
2018-10-09T01:22:18.192Z,5.85
2018-10-09T01:23:18.469Z,5.93
2018-10-09T01:24:18.227Z,5.82
2018-10-09T01:25:33.162Z,5.83
2018-10-09T01:26:18.260Z,5.85
2018-10-09T01:27:18.535Z,5.85
2018-10-09T01:28:18.549Z,5.86
2018-10-09T01:29:18.570Z,5.91
2018-10-09T01:30:18.627Z,5.93
2018-10-09T01:31:18.606Z,6
2018-10-09T01:32:18.616Z,5.99
2018-10-09T01:33:18.381Z,6.04
2018-10-09T01:34:18.653Z,5.94
2018-10-09T01:35:18.674Z,5.93
2018-10-09T01:36:18.683Z,6.01
2018-10-09T01:37:18.707Z,6.11
2018-10-09T01:38:18.716Z,5.99
2018-10-09T01:39:18.479Z,5.79
2018-10-09T01:40:18.494Z,5.78
2018-10-09T01:41:33.427Z,5.72
2018-10-09T01:42:18.787Z,5.75
2018-10-09T01:43:18.804Z,5.68
2018-10-09T01:44:18.824Z,5.78
2018-10-09T01:45:18.836Z,5.74
2018-10-09T01:46:18.849Z,5.68
2018-10-09T01:47:18.867Z,5.74
2018-10-09T01:49:33.563Z,5.71
2018-10-09T01:50:18.658Z,5.72
2018-10-09T01:51:18.419Z,5.72
2018-10-09T01:52:18.950Z,5.74
2018-10-09T01:53:18.967Z,5.75
2018-10-09T01:54:18.984Z,5.78
2018-10-09T01:55:19.014Z,5.74
2018-10-09T01:56:19.014Z,5.71
2018-10-09T01:57:33.756Z,5.71
2018-10-09T01:58:19.049Z,5.63
2018-10-09T01:59:19.069Z,5.64
2018-10-09T02:00:19.088Z,5.71
2018-10-09T02:01:19.101Z,5.68
2018-10-09T02:02:18.863Z,5.68
2018-10-09T02:03:19.130Z,5.58
2018-10-09T02:05:33.828Z,5.49
2018-10-09T02:06:18.923Z,5.46
2018-10-09T02:07:19.200Z,5.63
2018-10-09T02:08:33.875Z,5.51
2018-10-09T02:09:19.237Z,5.53
2018-10-09T02:10:19.253Z,5.54
2018-10-09T02:11:19.264Z,5.57
2018-10-09T02:12:33.947Z,5.57
2018-10-09T02:14:19.357Z,5.58
2018-10-09T02:15:19.331Z,5.56
2018-10-09T02:16:19.347Z,5.57
2018-10-09T02:17:19.374Z,5.51
2018-10-09T02:19:19.397Z,5.53
2018-10-09T02:20:19.413Z,5.57
2018-10-09T02:21:19.433Z,5.48
2018-10-09T02:22:19.192Z,5.49
2018-10-09T02:23:19.467Z,5.45
2018-10-09T02:24:19.477Z,5.53
2018-10-09T02:25:19.499Z,5.49
2018-10-09T02:26:19.512Z,5.43
2018-10-09T02:27:19.273Z,5.39
2018-10-09T02:28:19.545Z,5.39
2018-10-09T02:29:19.566Z,5.45
2018-10-09T02:30:19.593Z,5.35
2018-10-09T02:32:19.619Z,5.35
2018-10-09T02:33:19.626Z,5.39
2018-10-09T02:34:19.644Z,5.35
2018-10-09T02:35:19.434Z,5.38
2018-10-09T02:36:19.676Z,5.35
2018-10-09T02:37:19.692Z,5.38
2018-10-09T02:38:19.714Z,5.3
2018-10-09T02:39:19.739Z,5.33
2018-10-09T02:40:19.228Z,5.46
2018-10-09T02:41:19.763Z,5.4
2018-10-09T02:43:19.275Z,5.4
2018-10-09T02:44:34.468Z,5.28
2018-10-09T02:46:19.844Z,5.31
2018-10-09T02:47:19.865Z,5.3
2018-10-09T02:48:19.877Z,5.27
2018-10-09T02:49:19.896Z,5.24
2018-10-09T02:50:19.908Z,5.24
2018-10-09T02:51:19.918Z,5.25
2018-10-09T02:52:19.965Z,5.33
2018-10-09T02:53:19.956Z,5.3
2018-10-09T02:54:19.970Z,5.4
2018-10-09T02:55:19.729Z,5.45
2018-10-09T02:56:20.003Z,5.36
2018-10-09T02:57:20.028Z,5.36
2018-10-09T02:58:20.039Z,5.36
2018-10-09T02:59:20.052Z,5.42
2018-10-09T03:00:34.736Z,5.4
2018-10-09T03:01:20.085Z,5.39
2018-10-09T03:02:19.848Z,5.42
2018-10-09T03:03:19.859Z,5.4
2018-10-09T03:04:20.137Z,5.39
2018-10-09T03:05:19.892Z,5.35
2018-10-09T03:06:19.921Z,5.33
2018-10-09T03:08:19.709Z,5.21
2018-10-09T03:09:19.955Z,5.15
2018-10-09T03:10:34.641Z,5.25
2018-10-09T03:11:20.255Z,5.27
2018-10-09T03:12:20.264Z,5.33
2018-10-09T03:14:20.038Z,5.36
2018-10-09T03:15:20.311Z,5.36
2018-10-09T03:16:34.733Z,5.25
2018-10-09T03:17:20.352Z,5.28
2018-10-09T03:18:20.103Z,5.17
2018-10-09T03:19:20.375Z,5.12
2018-10-09T03:20:20.394Z,5.13
2018-10-09T03:21:20.152Z,5.13
2018-10-09T03:22:20.425Z,5.24
2018-10-09T03:23:20.447Z,5.17
2018-10-09T03:24:20.201Z,5.22
2018-10-09T03:25:35.136Z,5.15
2018-10-09T03:26:20.488Z,5.21
2018-10-09T03:27:35.167Z,5.12
2018-10-09T03:28:20.521Z,5.13
2018-10-09T03:29:20.539Z,5.17
2018-10-09T03:30:20.305Z,5.15
2018-10-09T03:31:20.571Z,5.13
2018-10-09T03:32:35.253Z,5.06
2018-10-09T03:34:20.621Z,5
2018-10-09T03:36:20.664Z,5.02
2018-10-09T03:37:20.676Z,5.09
2018-10-09T03:38:20.686Z,5.09
2018-10-09T03:39:20.701Z,4.99
2018-10-09T03:40:20.717Z,5.09
2018-10-09T03:41:20.731Z,5.03
2018-10-09T03:42:20.492Z,5.1
2018-10-09T03:43:20.509Z,4.99
2018-10-09T03:44:20.781Z,4.99
2018-10-09T03:45:20.796Z,4.91
2018-10-09T03:46:20.812Z,5.04
2018-10-09T03:47:35.491Z,4.92
2018-10-09T03:48:20.594Z,4.89
2018-10-09T03:49:20.862Z,5.02
2018-10-09T03:50:20.878Z,5.06
2018-10-09T03:51:20.894Z,5.04
2018-10-09T03:53:20.411Z,5.07
2018-10-09T03:54:20.942Z,5.03
2018-10-09T03:55:20.960Z,5.07
2018-10-09T03:56:20.978Z,5.1
2018-10-09T03:57:20.992Z,5.07
2018-10-09T03:58:21.006Z,5.07
2018-10-09T03:59:21.022Z,5.03
2018-10-09T04:00:21.036Z,5.06
2018-10-09T04:01:20.803Z,4.97
2018-10-09T04:02:20.818Z,4.99
2018-10-09T04:03:20.831Z,4.97
2018-10-09T04:04:20.845Z,4.94
2018-10-09T04:05:21.116Z,5.03
2018-10-09T04:06:21.135Z,4.92
2018-10-09T04:07:21.194Z,5.03
2018-10-09T04:08:20.908Z,5
2018-10-09T04:09:21.246Z,4.89
2018-10-09T04:10:21.200Z,4.88
2018-10-09T04:11:21.218Z,4.89
2018-10-09T04:12:35.955Z,4.99
2018-10-09T04:13:35.651Z,5.06
2018-10-09T04:14:21.266Z,5.03
2018-10-09T04:15:35.946Z,5.06
2018-10-09T04:16:21.296Z,5.09
2018-10-09T04:17:21.055Z,5.1
2018-10-09T04:18:21.069Z,5.03
2018-10-09T04:19:36.317Z,5.12
2018-10-09T04:20:21.359Z,5.09
2018-10-09T04:21:21.125Z,5.1
2018-10-09T04:22:21.395Z,5.2
2018-10-09T04:23:21.411Z,5.12
2018-10-09T04:25:21.443Z,5.02
2018-10-09T04:27:21.477Z,5.13
2018-10-09T04:28:21.494Z,5.06
2018-10-09T04:29:36.196Z,5.04
2018-10-09T04:30:21.518Z,5.1
2018-10-09T04:31:21.539Z,5.1
2018-10-09T04:32:21.551Z,5.1
2018-10-09T04:33:21.567Z,5.1
2018-10-09T04:34:21.583Z,5.12
2018-10-09T04:35:36.405Z,5.04
2018-10-09T04:36:21.618Z,5.1
2018-10-09T04:37:21.634Z,5.1
2018-10-09T04:38:21.652Z,5.12
2018-10-09T04:39:21.672Z,5.15
2018-10-09T04:40:21.163Z,5.18
2018-10-09T04:42:21.455Z,5.21
2018-10-09T04:43:21.729Z,5.12
2018-10-09T04:44:21.742Z,5.17
2018-10-09T04:45:21.816Z,5.1
2018-10-09T04:46:21.517Z,5.13
2018-10-09T04:47:36.197Z,5.18
2018-10-09T04:48:21.291Z,5.15
2018-10-09T04:49:21.566Z,5.17
2018-10-09T04:50:21.845Z,5.24
2018-10-09T04:51:36.513Z,5.1
2018-10-09T04:52:21.612Z,5.07
2018-10-09T04:53:21.886Z,5.07
2018-10-09T04:54:21.905Z,5.12
2018-10-09T04:55:21.667Z,5.12
2018-10-09T04:57:21.949Z,5.13
2018-10-09T04:58:36.630Z,5.17
2018-10-09T04:59:21.981Z,5.12
2018-10-09T05:00:21.997Z,5.27
2018-10-09T05:01:22.013Z,5.18
2018-10-09T05:02:21.772Z,5.06
2018-10-09T05:03:22.045Z,5.2
2018-10-09T05:04:22.062Z,5.1
2018-10-09T05:05:22.078Z,5.1
2018-10-09T05:06:22.095Z,5.07
2018-10-09T05:07:36.771Z,5.12
2018-10-09T05:08:22.125Z,5.18
2018-10-09T05:10:22.159Z,5.1
2018-10-09T05:11:22.178Z,5.17
2018-10-09T05:12:22.192Z,5.1
2018-10-09T05:13:22.209Z,5.2
2018-10-09T05:14:22.244Z,5.12
2018-10-09T05:15:21.984Z,5.15
2018-10-09T05:16:22.257Z,5.13
2018-10-09T05:17:22.267Z,5.12
2018-10-09T05:18:22.283Z,5.1
2018-10-09T05:19:22.300Z,5.1
2018-10-09T05:20:22.320Z,5.06
2018-10-09T05:21:22.331Z,5.06
2018-10-09T05:23:22.228Z,5
2018-10-09T05:24:22.385Z,4.96
2018-10-09T05:25:22.399Z,4.96
2018-10-09T05:26:22.158Z,4.99
2018-10-09T05:27:22.434Z,5.07
2018-10-09T05:28:22.453Z,4.96
2018-10-09T05:29:37.125Z,4.82
2018-10-09T05:30:22.480Z,4.94
2018-10-09T05:31:23.059Z,4.96
2018-10-09T05:32:37.170Z,5.03
2018-10-09T05:33:22.524Z,5.12
2018-10-09T05:34:22.552Z,5.18
2018-10-09T05:35:22.556Z,5.18
2018-10-09T05:36:22.570Z,5.3
2018-10-09T05:37:22.591Z,5.4
2018-10-09T05:38:22.609Z,5.4
2018-10-09T05:39:22.621Z,5.54
2018-10-09T05:40:22.635Z,5.45
2018-10-09T05:41:22.658Z,5.42
2018-10-09T05:43:22.696Z,5.4
2018-10-09T05:44:22.653Z,5.48
2018-10-09T05:45:22.460Z,5.48
2018-10-09T05:46:22.732Z,5.57
2018-10-09T05:47:22.753Z,5.46
2018-10-09T05:48:22.765Z,5.51
2018-10-09T05:49:22.789Z,5.53
2018-10-09T05:50:22.796Z,5.54
2018-10-09T05:51:22.555Z,5.58
2018-10-09T05:52:22.830Z,5.72
2018-10-09T05:53:22.848Z,5.65
2018-10-09T05:54:37.522Z,5.76
2018-10-09T05:55:22.885Z,5.74
2018-10-09T05:56:22.891Z,5.79
2018-10-09T05:57:22.914Z,5.65
2018-10-09T05:58:22.925Z,5.83
2018-10-09T05:59:22.941Z,5.83
2018-10-09T06:01:22.983Z,5.93
2018-10-09T06:02:22.736Z,5.96
2018-10-09T06:03:37.669Z,5.9
2018-10-09T06:04:23.026Z,5.91
2018-10-09T06:05:23.043Z,6.09
2018-10-09T06:06:23.058Z,6.04
2018-10-09T06:07:23.071Z,6
2018-10-09T06:08:23.093Z,6.06
2018-10-09T06:09:23.112Z,6.09
2018-10-09T06:10:37.782Z,6.04
2018-10-09T06:11:23.143Z,6.11
2018-10-09T06:12:23.154Z,6.19
2018-10-09T06:13:23.178Z,6.19
2018-10-09T06:14:23.193Z,6.31
2018-10-09T06:15:23.363Z,6.37
2018-10-09T06:17:23.236Z,6.52
2018-10-09T06:18:22.997Z,6.61
2018-10-09T06:19:23.266Z,6.61
2018-10-09T06:20:23.289Z,6.64
2018-10-09T06:21:23.303Z,6.77
2018-10-09T06:22:23.218Z,6.7
2018-10-09T06:23:23.336Z,6.7
2018-10-09T06:24:23.356Z,6.67
2018-10-09T06:25:23.373Z,6.71
2018-10-09T06:26:38.044Z,6.73
2018-10-09T06:27:23.406Z,6.74
2018-10-09T06:28:23.706Z,6.97
2018-10-09T06:29:23.434Z,6.94
2018-10-09T06:30:22.935Z,6.92
2018-10-09T06:31:23.471Z,7.02
2018-10-09T06:32:23.484Z,6.98
2018-10-09T06:33:23.507Z,6.98
2018-10-09T06:34:23.519Z,7.13
2018-10-09T06:35:23.540Z,7.13
2018-10-09T06:36:23.656Z,7.27
2018-10-09T06:37:23.915Z,7.2
2018-10-09T06:38:23.604Z,7.35
2018-10-09T06:39:23.601Z,7.34
2018-10-09T06:40:23.666Z,7.4
2018-10-09T06:41:23.635Z,7.34
2018-10-09T06:42:38.481Z,7.5
2018-10-09T06:44:23.800Z,7.58
2018-10-09T06:45:23.703Z,7.6
2018-10-09T06:46:23.725Z,7.63
2018-10-09T06:47:23.803Z,7.8
2018-10-09T06:48:23.754Z,7.93
2018-10-09T06:49:23.778Z,7.93
2018-10-09T06:50:23.794Z,8.01
2018-10-09T06:51:23.805Z,7.98
2018-10-09T06:52:23.823Z,8.04
2018-10-09T06:53:24.089Z,8.11
2018-10-09T06:54:23.772Z,8.04
2018-10-09T06:55:23.873Z,8.25
2018-10-09T06:56:23.901Z,8.2
2018-10-09T06:57:38.592Z,8.23
2018-10-09T06:58:23.939Z,8.38
2018-10-09T06:59:23.947Z,8.43
2018-10-09T07:00:24.324Z,8.61
2018-10-09T07:01:23.727Z,8.71
2018-10-09T07:02:23.752Z,8.79
2018-10-09T07:03:23.763Z,8.79
2018-10-09T07:04:38.701Z,8.62
2018-10-09T07:05:24.065Z,8.58
2018-10-09T07:06:23.821Z,8.76
2018-10-09T07:07:24.094Z,8.77
2018-10-09T07:08:24.113Z,8.84
2018-10-09T07:09:24.262Z,8.84
2018-10-09T07:10:24.158Z,8.87
2018-10-09T07:11:24.511Z,8.94
2018-10-09T07:13:24.208Z,8.92
2018-10-09T07:15:24.289Z,9.13
2018-10-09T07:16:24.262Z,9.21
2018-10-09T07:17:24.280Z,9.24
2018-10-09T07:18:24.294Z,9.21
2018-10-09T07:19:24.311Z,9.39
2018-10-09T07:20:24.336Z,9.38
2018-10-09T07:21:24.350Z,9.4
2018-10-09T07:22:39.030Z,9.47
2018-10-09T07:23:24.387Z,9.43
2018-10-09T07:24:24.407Z,9.38
2018-10-09T07:25:24.425Z,9.38
2018-10-09T07:26:24.442Z,9.4
2018-10-09T07:27:24.509Z,9.38
2018-10-09T07:28:24.491Z,9.47
2018-10-09T07:29:39.169Z,9.57
2018-10-09T07:30:24.537Z,9.57
2018-10-09T07:31:24.297Z,9.6
2018-10-09T07:32:24.559Z,9.69
2018-10-09T07:33:24.323Z,9.75
2018-10-09T07:35:24.362Z,9.99
2018-10-09T07:36:24.639Z,9.99
2018-10-09T07:37:24.666Z,9.91
2018-10-09T07:38:39.335Z,10.07
2018-10-09T07:39:39.353Z,10.01
2018-10-09T07:40:24.458Z,10.07
2018-10-09T07:41:24.732Z,10.17
2018-10-09T07:42:24.750Z,10.04
2018-10-09T07:43:24.514Z,10.12
2018-10-09T07:44:25.031Z,10.18
2018-10-09T07:45:39.472Z,10.4
2018-10-09T07:46:24.597Z,10.4
2018-10-09T07:49:24.909Z,10.59
2018-10-09T07:50:39.570Z,10.61
2018-10-09T07:51:24.668Z,10.6
2018-10-09T07:52:24.945Z,10.73
2018-10-09T07:53:24.971Z,10.68
2018-10-09T07:54:24.728Z,10.74
2018-10-09T07:55:39.664Z,10.81
2018-10-09T07:56:25.025Z,10.84
2018-10-09T07:57:25.047Z,10.99
2018-10-09T07:58:25.065Z,11.17
2018-10-09T07:59:24.828Z,11.14
2018-10-09T08:00:24.850Z,11.09
2018-10-09T08:01:39.530Z,10.94
2018-10-09T08:02:25.144Z,11.07
2018-10-09T08:03:25.171Z,11.02
2018-10-09T08:06:25.228Z,11.21
2018-10-09T08:07:25.246Z,11.19
2018-10-09T08:08:25.266Z,11.35
2018-10-09T08:09:39.946Z,11.22
2018-10-09T08:10:25.237Z,11.29
2018-10-09T08:11:25.335Z,11.42
2018-10-09T08:12:25.344Z,11.42
2018-10-09T08:13:25.366Z,11.47
2018-10-09T08:14:25.386Z,11.55
2018-10-09T08:15:25.412Z,11.52
2018-10-09T08:16:25.386Z,11.6
2018-10-09T08:17:40.114Z,11.65
2018-10-09T08:18:25.209Z,11.65
2018-10-09T08:19:25.512Z,11.55
2018-10-09T08:20:25.506Z,11.61
2018-10-09T08:21:25.270Z,11.67
2018-10-09T08:22:25.880Z,11.7
2018-10-09T08:23:25.567Z,11.72
2018-10-09T08:24:25.329Z,11.57
2018-10-09T08:25:25.606Z,11.69
2018-10-09T08:26:25.113Z,11.62
2018-10-09T08:27:25.650Z,11.72
2018-10-09T08:28:25.677Z,11.6
2018-10-09T08:29:25.692Z,11.57
2018-10-09T08:30:25.456Z,11.67
2018-10-09T08:31:25.733Z,11.85
2018-10-09T08:32:40.424Z,12.05
2018-10-09T08:33:25.775Z,12.17
2018-10-09T08:34:25.666Z,12.2
2018-10-09T08:35:25.555Z,12.38
2018-10-09T08:36:25.850Z,12.54
2018-10-09T08:37:25.856Z,12.65
2018-10-09T08:38:25.876Z,12.74
2018-10-09T08:39:25.906Z,12.7
2018-10-09T08:40:26.239Z,12.87
2018-10-09T08:41:26.082Z,12.87
2018-10-09T08:42:25.959Z,12.85
2018-10-09T08:43:25.988Z,12.96
2018-10-09T08:44:26.003Z,12.93
2018-10-09T08:45:26.024Z,13.17
2018-10-09T08:46:26.387Z,13.23
2018-10-09T08:47:26.070Z,13.36
2018-10-09T08:48:26.089Z,13.39
2018-10-09T08:51:26.150Z,13.95
2018-10-09T08:52:40.837Z,14.07
2018-10-09T08:53:26.201Z,13.89
2018-10-09T08:54:25.955Z,13.92
2018-10-09T08:55:25.986Z,14.02
2018-10-09T08:56:26.264Z,13.99
2018-10-09T08:57:26.167Z,14
2018-10-09T08:58:40.958Z,14.27
2018-10-09T08:59:26.325Z,14.46
2018-10-09T09:00:26.365Z,14.47
2018-10-09T09:01:26.367Z,14.47
2018-10-09T09:02:26.404Z,14.5
2018-10-09T09:03:26.208Z,14.46
2018-10-09T09:04:41.094Z,14.55
2018-10-09T09:05:26.457Z,14.62
2018-10-09T09:06:26.219Z,14.6
2018-10-09T09:07:26.245Z,14.51
2018-10-09T09:08:26.260Z,14.6
2018-10-09T09:09:26.563Z,14.61
2018-10-09T09:10:26.304Z,14.73
2018-10-09T09:11:26.586Z,14.75
2018-10-09T09:12:26.606Z,14.83
2018-10-09T09:15:26.645Z,14.73
2018-10-09T09:17:26.456Z,14.72
2018-10-09T09:18:26.738Z,14.8
2018-10-09T09:19:26.767Z,14.78
2018-10-09T09:20:41.779Z,14.78
2018-10-09T09:21:26.718Z,14.75
2018-10-09T09:22:26.864Z,14.92
2018-10-09T09:23:26.844Z,14.81
2018-10-09T09:24:26.607Z,14.89
2018-10-09T09:25:26.629Z,14.95
2018-10-09T09:26:41.757Z,14.91
2018-10-09T09:27:26.528Z,14.88
2018-10-09T09:28:41.617Z,14.91
2018-10-09T09:29:26.978Z,14.95
2018-10-09T09:30:26.745Z,14.89
2018-10-09T09:31:27.018Z,14.92
2018-10-09T09:32:27.189Z,14.99
2018-10-09T09:33:26.808Z,15.07
2018-10-09T09:34:27.085Z,15.09
2018-10-09T09:35:26.849Z,15.19
2018-10-09T09:36:41.785Z,15.31
2018-10-09T09:37:27.154Z,15.39
2018-10-09T09:38:27.176Z,15.57
2018-10-09T09:39:27.197Z,15.69
2018-10-09T09:40:27.215Z,15.82
2018-10-09T09:41:26.980Z,16.08
2018-10-09T09:42:27.000Z,16.17
2018-10-09T09:43:27.285Z,16.23
2018-10-09T09:44:27.312Z,16.3
2018-10-09T09:45:27.069Z,16.46
2018-10-09T09:46:27.484Z,16.46
2018-10-09T09:47:27.215Z,16.45
2018-10-09T09:48:27.136Z,16.5
2018-10-09T09:49:27.158Z,16.49
2018-10-09T09:50:27.192Z,16.56
2018-10-09T09:51:27.465Z,16.53
2018-10-09T09:53:42.177Z,16.61
2018-10-09T09:54:27.274Z,16.56
2018-10-09T09:57:27.391Z,16.48
2018-10-09T09:58:27.732Z,16.39
2018-10-09T09:59:27.941Z,16.39
2018-10-09T10:00:42.329Z,16.49
2018-10-09T10:01:27.691Z,16.38
2018-10-09T10:02:27.456Z,16.38
2018-10-09T10:03:27.759Z,16.35
2018-10-09T10:04:27.503Z,16.31
2018-10-09T10:05:27.525Z,16.45
2018-10-09T10:06:27.805Z,16.46
2018-10-09T10:07:42.494Z,16.53
2018-10-09T10:08:27.337Z,16.64
2018-10-09T10:09:28.267Z,16.66
2018-10-09T10:10:27.964Z,16.66
2018-10-09T10:11:27.927Z,16.7
2018-10-09T10:12:27.947Z,16.76
2018-10-09T10:13:27.971Z,16.88
2018-10-09T10:14:27.732Z,16.98
2018-10-09T10:15:27.762Z,17.04
2018-10-09T10:16:27.784Z,17.12
2018-10-09T10:17:42.718Z,17.18
2018-10-09T10:18:42.742Z,17.23
2018-10-09T10:19:28.125Z,17.15
2018-10-09T10:20:28.127Z,17.33
2018-10-09T10:22:28.180Z,17.19
2018-10-09T10:23:27.938Z,17.34
2018-10-09T10:25:27.986Z,17.33
2018-10-09T10:26:28.285Z,17.44
2018-10-09T10:27:28.293Z,17.54
2018-10-09T10:28:28.312Z,17.62
2018-10-09T10:29:43.000Z,17.74
2018-10-09T10:30:28.359Z,17.7
2018-10-09T10:31:28.381Z,17.56
2018-10-09T10:32:28.415Z,17.52
2018-10-09T10:33:28.432Z,17.59
2018-10-09T10:34:28.197Z,17.63
2018-10-09T10:35:28.581Z,17.7
2018-10-09T10:36:28.341Z,17.74
2018-10-09T10:37:28.267Z,17.78
2018-10-09T10:38:28.286Z,17.81
2018-10-09T10:39:43.234Z,17.9
2018-10-09T10:40:28.598Z,18.03
2018-10-09T10:41:28.622Z,18.14
2018-10-09T10:42:28.376Z,18.11
2018-10-09T10:43:28.661Z,18.11
2018-10-09T10:44:28.427Z,18.2
2018-10-09T10:45:28.448Z,18.37
2018-10-09T10:46:28.733Z,18.41
2018-10-09T10:47:28.753Z,18.29
2018-10-09T10:48:28.785Z,18.32
2018-10-09T10:49:29.036Z,18.32
2018-10-09T10:51:28.587Z,18.5
2018-10-09T10:52:28.869Z,18.45
2018-10-09T10:53:28.634Z,18.55
2018-10-09T10:54:28.396Z,18.72
2018-10-09T10:55:43.598Z,18.76
2018-10-09T10:56:28.968Z,18.72
2018-10-09T10:57:28.728Z,18.94
2018-10-09T10:58:28.747Z,18.78
2018-10-09T10:59:28.773Z,18.94
2018-10-09T11:00:29.053Z,18.82
2018-10-09T11:01:29.170Z,18.92
2018-10-09T11:02:43.763Z,18.99
2018-10-09T11:03:28.863Z,19.1
2018-10-09T11:04:28.629Z,19.19
2018-10-09T11:05:29.172Z,19.06
2018-10-09T11:06:28.935Z,19.13
2018-10-09T11:07:29.219Z,19.11
2018-10-09T11:08:29.552Z,19.16
2018-10-09T11:09:29.007Z,19.36
2018-10-09T11:10:29.288Z,19.4
2018-10-09T11:12:29.348Z,19.63
2018-10-09T11:13:29.364Z,19.69
2018-10-09T11:14:29.415Z,19.63
2018-10-09T11:15:28.887Z,19.68
2018-10-09T11:16:29.182Z,19.78
2018-10-09T11:17:29.457Z,19.83
2018-10-09T11:18:29.219Z,19.87
2018-10-09T11:19:29.495Z,19.84
2018-10-09T11:20:29.522Z,19.91
2018-10-09T11:21:30.040Z,19.76
2018-10-09T11:22:29.631Z,19.65
2018-10-09T11:23:29.698Z,19.66
2018-10-09T11:24:29.356Z,19.61
2018-10-09T11:25:29.380Z,19.66
2018-10-09T11:26:29.403Z,19.69
2018-10-09T11:27:44.347Z,19.68
2018-10-09T11:28:29.710Z,19.71
2018-10-09T11:29:29.740Z,19.73
2018-10-09T11:30:29.505Z,19.73
2018-10-09T11:31:29.522Z,19.78
2018-10-09T11:32:44.531Z,19.78
2018-10-09T11:33:44.490Z,19.71
2018-10-09T11:34:29.856Z,19.59
2018-10-09T11:35:29.615Z,19.73
2018-10-09T11:36:29.641Z,19.78
2018-10-09T11:37:29.930Z,19.62
2018-10-09T11:38:29.944Z,19.76
2018-10-09T11:39:29.974Z,19.74
2018-10-09T11:40:29.992Z,19.87
2018-10-09T11:41:29.758Z,19.78
2018-10-09T11:42:44.848Z,19.91
2018-10-09T11:43:30.065Z,19.77
2018-10-09T11:44:30.185Z,19.73
2018-10-09T11:45:30.108Z,19.71
2018-10-09T11:46:30.136Z,19.8
2018-10-09T11:47:29.898Z,19.8
2018-10-09T11:48:30.179Z,19.84
2018-10-09T11:49:29.949Z,19.92
2018-10-09T11:50:29.972Z,19.98
2018-10-09T11:51:44.912Z,20.05
2018-10-09T11:52:30.275Z,19.99
2018-10-09T11:54:30.329Z,20.2
2018-10-09T11:55:30.348Z,20.2
2018-10-09T11:56:30.113Z,20.31
2018-10-09T11:57:30.403Z,20.33
2018-10-09T11:58:30.521Z,20.38
2018-10-09T11:59:30.183Z,20.42
2018-10-09T12:00:30.467Z,20.28
2018-10-09T12:01:30.494Z,20.16
2018-10-09T12:02:30.511Z,20.21
2018-10-09T12:04:30.303Z,20.28
2018-10-09T12:05:30.584Z,20.39
2018-10-09T12:06:30.610Z,20.36
2018-10-09T12:07:30.637Z,20.57
2018-10-09T12:08:30.655Z,20.61
2018-10-09T12:09:45.341Z,20.5
2018-10-09T12:11:30.731Z,20.57
2018-10-09T12:12:30.499Z,20.64
2018-10-09T12:13:30.773Z,20.5
2018-10-09T12:14:45.458Z,20.38
2018-10-09T12:15:30.822Z,20.32
2018-10-09T12:16:30.846Z,20.29
2018-10-09T12:17:30.870Z,20.26
2018-10-09T12:18:30.892Z,20.47
2018-10-09T12:19:30.926Z,20.41
2018-10-09T12:20:30.683Z,20.5
2018-10-09T12:21:31.368Z,20.5
2018-10-09T12:22:30.733Z,20.5
2018-10-09T12:23:31.012Z,20.48
2018-10-09T12:24:31.045Z,20.47
2018-10-09T12:25:31.067Z,20.35
2018-10-09T12:26:31.091Z,20.26
2018-10-09T12:27:30.849Z,20.24
2018-10-09T12:28:30.871Z,20.35
2018-10-09T12:29:30.898Z,20.26
2018-10-09T12:30:45.840Z,20.32
2018-10-09T12:31:30.687Z,20.24
2018-10-09T12:32:30.710Z,20.28
2018-10-09T12:33:31.252Z,20.26
2018-10-09T12:34:31.281Z,20.32
2018-10-09T12:35:31.300Z,20.24
2018-10-09T12:36:31.062Z,20.26
2018-10-09T12:37:31.345Z,20.33
2018-10-09T12:38:31.707Z,20.33
2018-10-09T12:39:31.135Z,20.23
2018-10-09T12:40:31.444Z,20.31
2018-10-09T12:41:31.445Z,20.31
2018-10-09T12:42:31.468Z,20.21
2018-10-09T12:43:31.539Z,20.24
2018-10-09T12:44:31.467Z,20.21
2018-10-09T12:45:31.020Z,20.14
2018-10-09T12:46:46.227Z,20.26
2018-10-09T12:48:31.607Z,20.1
2018-10-09T12:49:31.372Z,20.2
2018-10-09T12:50:31.655Z,20.06
2018-10-09T12:51:31.693Z,20.11
2018-10-09T12:52:31.706Z,20.14
2018-10-09T12:53:31.728Z,20.14
2018-10-09T12:54:31.757Z,20.16
2018-10-09T12:55:31.520Z,20.2
2018-10-09T12:56:31.812Z,20.11
2018-10-09T12:57:31.821Z,20.2
2018-10-09T12:58:32.056Z,20.14
2018-10-09T12:59:31.611Z,20.11
2018-10-09T13:00:31.643Z,20.16
2018-10-09T13:01:31.917Z,20.13
2018-10-09T13:02:46.601Z,20.21
2018-10-09T13:03:31.967Z,20.14
2018-10-09T13:04:31.990Z,20.1
2018-10-09T13:05:31.759Z,20.14
2018-10-09T13:07:31.802Z,20.13
2018-10-09T13:08:32.087Z,20.13
2018-10-09T13:09:32.074Z,20.11
2018-10-09T13:10:32.134Z,20.17
2018-10-09T13:11:31.899Z,20.2
2018-10-09T13:12:32.178Z,20.14
2018-10-09T13:13:31.688Z,20.1
2018-10-09T13:14:32.230Z,20.1
2018-10-09T13:15:32.253Z,20.23
2018-10-09T13:16:32.385Z,20.21
2018-10-09T13:17:47.263Z,20.32
2018-10-09T13:18:32.062Z,20.21
2018-10-09T13:20:32.372Z,20.2
2018-10-09T13:21:32.997Z,20.18
2018-10-09T13:22:33.683Z,20.21
2018-10-09T13:23:32.442Z,20.24
2018-10-09T13:24:32.207Z,20.33
2018-10-09T13:25:47.150Z,20.31
2018-10-09T13:26:32.511Z,20.21
2018-10-09T13:27:32.540Z,20.32
2018-10-09T13:28:32.302Z,20.32
2018-10-09T13:29:32.325Z,20.24
2018-10-09T13:31:32.636Z,20.26
2018-10-09T13:32:32.758Z,20.18
2018-10-09T13:34:32.645Z,20.17
2018-10-09T13:35:32.736Z,20.18
2018-10-09T13:36:32.752Z,20.16
2018-10-09T13:37:32.772Z,20.24
2018-10-09T13:38:32.542Z,20.2
2018-10-09T13:39:32.564Z,20.23
2018-10-09T13:40:32.853Z,20.2
2018-10-09T13:41:32.875Z,20.17
2018-10-09T13:42:32.905Z,20.21
2018-10-09T13:43:32.928Z,20.28
2018-10-09T13:44:32.427Z,20.18
2018-10-09T13:45:32.449Z,20.24
2018-10-09T13:46:32.992Z,20.24
2018-10-09T13:47:33.489Z,20.23
2018-10-09T13:48:33.034Z,20.33
2018-10-09T13:49:47.723Z,20.33
2018-10-09T13:50:33.302Z,20.29
2018-10-09T13:51:33.119Z,20.26
2018-10-09T13:52:33.230Z,20.31
2018-10-09T13:53:33.158Z,20.26
2018-10-09T13:54:33.182Z,20.31
2018-10-09T13:55:33.226Z,20.21
2018-10-09T13:56:33.230Z,20.23
2018-10-09T13:57:33.258Z,20.23
2018-10-09T13:58:33.027Z,20.28
2018-10-09T13:59:33.298Z,20.23
2018-10-09T14:00:48.110Z,20.21
2018-10-09T14:01:33.194Z,20.18
2018-10-09T14:02:33.111Z,20.17
2018-10-09T14:03:33.391Z,20.24
2018-10-09T14:04:33.419Z,20.21
2018-10-09T14:05:48.107Z,20.18